Time;durP1;ratioP1;P1;durP2;ratioP2;P2;SDS_P1;SDS_P2;PMS_P1;PMS_P2;Temp;Humidity;BMP_temperature;BMP_pressure;BME280_temperature;BME280_humidity;BME280_pressure;Samples;Min_cycle;Max_cycle;Signal;HPM_P1;HPM_P2
2023/07/25 00:00:44;;;;;;;2.10;0.85;;;14.20;99.90;;;;;;5075706;28;20372;-71
2023/07/25 00:03:09;;;;;;;4.13;1.10;;;14.20;99.90;;;;;;5074217;28;20047;-71
2023/07/25 00:05:36;;;;;;;6.82;1.17;;;14.10;99.90;;;;;;5043156;28;20044;-71
2023/07/25 00:08:01;;;;;;;1.58;0.90;;;14.10;99.90;;;;;;5038996;28;20037;-72
2023/07/25 00:10:27;;;;;;;2.20;1.08;;;14.10;99.90;;;;;;5043548;28;20086;-72
2023/07/25 00:12:54;;;;;;;2.10;0.95;;;14.10;99.90;;;;;;5038935;28;20052;-72
2023/07/25 00:15:21;;;;;;;3.13;1.33;;;14.10;99.90;;;;;;5042928;28;20048;-72
2023/07/25 00:17:47;;;;;;;1.65;0.90;;;14.10;99.90;;;;;;5041627;28;20031;-72
2023/07/25 00:20:12;;;;;;;2.42;1.20;;;14.00;99.90;;;;;;5042670;28;20029;-72
2023/07/25 00:22:38;;;;;;;3.60;1.02;;;14.00;99.90;;;;;;5040371;28;20040;-72
2023/07/25 00:25:04;;;;;;;2.53;1.17;;;14.00;99.90;;;;;;5043566;28;20042;-72
2023/07/25 00:27:29;;;;;;;2.88;1.30;;;13.90;99.90;;;;;;5055468;28;20048;-72
2023/07/25 00:29:55;;;;;;;3.28;1.20;;;13.90;99.90;;;;;;5042172;28;20044;-72
2023/07/25 00:32:21;;;;;;;7.20;1.75;;;13.90;99.90;;;;;;5035806;28;20052;-70
2023/07/25 00:34:50;;;;;;;3.95;1.05;;;13.90;99.90;;;;;;5070711;28;20033;-69
2023/07/25 00:37:15;;;;;;;2.08;0.95;;;13.90;99.90;;;;;;5043592;28;20507;-69
2023/07/25 00:39:41;;;;;;;1.52;1.00;;;13.90;99.90;;;;;;5045542;28;20041;-69
2023/07/25 00:42:07;;;;;;;3.45;1.05;;;13.90;99.90;;;;;;5074024;28;20045;-69
2023/07/25 00:44:32;;;;;;;4.03;1.02;;;13.90;99.90;;;;;;5070886;28;20144;-69
2023/07/25 00:46:58;;;;;;;1.95;1.10;;;13.80;99.90;;;;;;5039843;28;20128;-69
2023/07/25 00:49:24;;;;;;;3.58;1.30;;;13.80;99.90;;;;;;5074923;28;20052;-69
2023/07/25 00:51:50;;;;;;;1.63;1.02;;;13.80;99.90;;;;;;5040548;28;20039;-69
2023/07/25 00:54:16;;;;;;;4.00;1.50;;;13.80;99.90;;;;;;5042407;28;20040;-70
2023/07/25 00:56:42;;;;;;;3.63;1.20;;;13.80;99.90;;;;;;5021456;28;20576;-69
2023/07/25 00:59:07;;;;;;;5.57;1.25;;;13.70;99.90;;;;;;5073451;28;20128;-69
2023/07/25 01:01:33;;;;;;;3.38;1.20;;;13.70;99.90;;;;;;5041698;28;20394;-69
2023/07/25 01:03:59;;;;;;;3.17;1.02;;;13.70;99.90;;;;;;5018993;28;20462;-69
2023/07/25 01:06:25;;;;;;;2.60;1.00;;;13.70;99.90;;;;;;5070642;28;20426;-69
2023/07/25 01:08:54;;;;;;;3.38;1.00;;;13.60;99.90;;;;;;5041139;28;20124;-70
2023/07/25 01:11:21;;;;;;;6.90;1.08;;;13.60;99.90;;;;;;5072685;28;20126;-69
2023/07/25 01:13:48;;;;;;;3.97;1.20;;;13.60;99.90;;;;;;5072064;28;20486;-70
2023/07/25 01:16:17;;;;;;;2.10;0.82;;;13.50;99.90;;;;;;5072300;28;20430;-69
2023/07/25 01:18:43;;;;;;;2.95;1.00;;;13.50;99.90;;;;;;5040347;28;20044;-69
2023/07/25 01:21:10;;;;;;;3.63;1.00;;;13.50;99.90;;;;;;5074994;28;20479;-69
2023/07/25 01:23:36;;;;;;;3.45;1.48;;;13.50;99.90;;;;;;5073792;28;20045;-69
2023/07/25 01:26:02;;;;;;;4.13;1.13;;;13.50;99.90;;;;;;5056554;28;20056;-69
2023/07/25 01:28:28;;;;;;;3.22;1.10;;;13.50;99.90;;;;;;5035912;28;20045;-69
2023/07/25 01:30:53;;;;;;;4.28;1.10;;;13.50;99.90;;;;;;5074153;28;21628;-72
2023/07/25 01:33:19;;;;;;;4.55;1.30;;;13.50;99.90;;;;;;5020861;28;20425;-73
2023/07/25 01:35:44;;;;;;;2.55;1.10;;;13.50;99.90;;;;;;5041144;28;20083;-72
2023/07/25 01:38:10;;;;;;;1.80;1.00;;;13.50;99.90;;;;;;5039838;28;20032;-72
2023/07/25 01:40:39;;;;;;;2.22;1.00;;;13.40;99.90;;;;;;5072560;28;20090;-72
2023/07/25 01:43:06;;;;;;;2.50;1.00;;;13.40;99.90;;;;;;5070277;28;20041;-72
2023/07/25 01:45:31;;;;;;;1.45;0.90;;;13.40;99.90;;;;;;5043158;28;20073;-72
2023/07/25 01:47:59;;;;;;;4.55;1.17;;;13.40;99.90;;;;;;5044019;28;20102;-72
2023/07/25 01:50:24;;;;;;;2.92;1.20;;;13.40;99.90;;;;;;5037105;28;20036;-72
2023/07/25 01:52:50;;;;;;;3.30;0.90;;;13.40;99.90;;;;;;5020467;28;20514;-72
2023/07/25 01:55:16;;;;;;;3.03;0.98;;;13.40;99.90;;;;;;5042234;28;20036;-72
2023/07/25 01:57:41;;;;;;;2.90;1.10;;;13.40;99.90;;;;;;5076785;28;20037;-72
2023/07/25 02:00:07;;;;;;;4.05;1.33;;;13.40;99.90;;;;;;5041608;28;20060;-72
2023/07/25 02:02:33;;;;;;;4.68;1.55;;;13.40;99.90;;;;;;5076773;28;20712;-72
2023/07/25 02:04:58;;;;;;;4.90;1.25;;;13.40;99.90;;;;;;5020746;28;20045;-72
2023/07/25 02:07:24;;;;;;;1.65;1.00;;;13.40;99.90;;;;;;5076667;28;20041;-72
2023/07/25 02:09:49;;;;;;;2.42;1.00;;;13.40;99.90;;;;;;5044071;28;20043;-72
2023/07/25 02:12:15;;;;;;;2.50;0.93;;;13.40;99.90;;;;;;5042569;28;20526;-72
2023/07/25 02:14:40;;;;;;;1.88;1.20;;;13.40;99.90;;;;;;5041567;28;20029;-72
2023/07/25 02:17:06;;;;;;;2.92;1.10;;;13.40;99.90;;;;;;5044896;28;20387;-72
2023/07/25 02:19:31;;;;;;;7.53;1.17;;;13.40;99.90;;;;;;5075941;28;20065;-72
2023/07/25 02:21:57;;;;;;;2.72;0.98;;;13.40;99.90;;;;;;5060812;28;20032;-72
2023/07/25 02:24:22;;;;;;;2.67;1.08;;;13.40;99.90;;;;;;5042565;28;20771;-72
2023/07/25 02:26:48;;;;;;;1.73;0.95;;;13.40;99.90;;;;;;5042836;28;20076;-72
2023/07/25 02:29:14;;;;;;;3.72;1.20;;;13.40;99.90;;;;;;5042932;28;20087;-72
2023/07/25 02:31:39;;;;;;;2.17;0.82;;;13.40;99.90;;;;;;5021256;28;20033;-72
2023/07/25 02:34:06;;;;;;;2.10;1.10;;;13.40;99.90;;;;;;5045561;28;20406;-72
2023/07/25 02:36:31;;;;;;;2.88;1.10;;;13.40;99.90;;;;;;5042892;28;20047;-72
2023/07/25 02:38:57;;;;;;;2.15;1.00;;;13.40;99.90;;;;;;5045768;28;20045;-72
2023/07/25 02:41:23;;;;;;;3.97;1.08;;;13.40;99.90;;;;;;5042943;28;20033;-72
2023/07/25 02:43:48;;;;;;;3.78;1.00;;;13.40;99.90;;;;;;5071030;28;20079;-72
2023/07/25 02:46:14;;;;;;;1.60;0.70;;;13.40;99.90;;;;;;5044178;28;20481;-72
2023/07/25 02:48:40;;;;;;;3.90;0.95;;;13.40;99.90;;;;;;5044077;28;20118;-72
2023/07/25 02:51:05;;;;;;;2.35;1.40;;;13.40;99.90;;;;;;5076215;28;20098;-72
2023/07/25 02:53:31;;;;;;;1.50;1.00;;;13.40;99.90;;;;;;5076320;28;20495;-72
2023/07/25 02:55:56;;;;;;;2.17;0.98;;;13.30;99.90;;;;;;5043599;28;20116;-72
2023/07/25 02:58:23;;;;;;;3.38;0.88;;;13.30;99.90;;;;;;5042856;28;20119;-72
2023/07/25 03:00:49;;;;;;;5.45;1.23;;;13.30;99.90;;;;;;5075101;28;20128;-72
2023/07/25 03:03:15;;;;;;;3.55;1.17;;;13.30;99.90;;;;;;5044961;28;20036;-72
2023/07/25 03:05:41;;;;;;;3.83;1.00;;;13.20;99.90;;;;;;5042125;28;20122;-72
2023/07/25 03:08:07;;;;;;;1.80;0.73;;;13.20;99.90;;;;;;5076854;28;20044;-72
2023/07/25 03:10:33;;;;;;;2.47;0.90;;;13.20;99.90;;;;;;5044019;28;20045;-72
2023/07/25 03:12:58;;;;;;;1.48;0.95;;;13.20;99.90;;;;;;5037896;28;20304;-73
2023/07/25 03:15:24;;;;;;;2.83;0.98;;;13.20;99.90;;;;;;5040179;28;20123;-72
2023/07/25 03:17:50;;;;;;;4.82;1.23;;;13.20;99.90;;;;;;5074307;28;20787;-72
2023/07/25 03:20:16;;;;;;;7.40;1.15;;;13.20;99.90;;;;;;5077045;28;20048;-72
2023/07/25 03:22:42;;;;;;;5.60;1.35;;;13.20;99.90;;;;;;5022541;28;20453;-72
2023/07/25 03:25:08;;;;;;;2.53;1.05;;;13.20;99.90;;;;;;5043618;28;20048;-72
2023/07/25 03:27:33;;;;;;;2.72;1.05;;;13.20;99.90;;;;;;5040974;28;20057;-72
2023/07/25 03:29:59;;;;;;;4.18;0.90;;;13.20;99.90;;;;;;5045287;28;20052;-72
2023/07/25 03:32:24;;;;;;;4.65;1.17;;;13.20;99.90;;;;;;5040081;28;20155;-72
2023/07/25 03:34:50;;;;;;;1.95;0.88;;;13.20;99.90;;;;;;5043270;28;20497;-72
2023/07/25 03:37:16;;;;;;;3.03;1.20;;;13.20;99.90;;;;;;5039562;28;20033;-72
2023/07/25 03:39:41;;;;;;;3.33;1.00;;;13.20;99.90;;;;;;5025897;28;20041;-72
2023/07/25 03:42:07;;;;;;;3.38;1.00;;;13.20;99.90;;;;;;5023435;28;20033;-72
2023/07/25 03:44:33;;;;;;;4.13;1.00;;;13.20;99.90;;;;;;5043489;28;20128;-72
2023/07/25 03:46:58;;;;;;;2.17;1.20;;;13.30;99.90;;;;;;5076279;28;20040;-72
2023/07/25 03:49:24;;;;;;;2.83;0.93;;;13.30;99.90;;;;;;5043371;28;20403;-72
2023/07/25 03:51:49;;;;;;;3.90;1.20;;;13.30;99.90;;;;;;5058004;28;20482;-72
2023/07/25 03:54:15;;;;;;;1.70;1.00;;;13.30;99.90;;;;;;5043204;28;20098;-72
2023/07/25 03:56:40;;;;;;;4.20;1.10;;;13.30;99.90;;;;;;5040672;28;20203;-72
2023/07/25 03:59:06;;;;;;;3.47;1.23;;;13.40;99.90;;;;;;5042556;28;20143;-72
2023/07/25 04:01:32;;;;;;;2.45;0.90;;;13.40;99.90;;;;;;5043332;28;20549;-72
2023/07/25 04:03:57;;;;;;;5.32;1.30;;;13.40;99.90;;;;;;5040561;28;20114;-72
2023/07/25 04:06:23;;;;;;;2.25;1.00;;;13.40;99.90;;;;;;5042216;28;20048;-72
2023/07/25 04:08:48;;;;;;;5.82;1.20;;;13.40;99.90;;;;;;5076206;28;20063;-72
2023/07/25 04:11:14;;;;;;;2.40;1.10;;;13.40;99.90;;;;;;5039273;28;20032;-72
2023/07/25 04:13:40;;;;;;;1.85;0.90;;;13.40;99.90;;;;;;5042446;28;20537;-70
2023/07/25 04:16:06;;;;;;;2.70;1.10;;;13.50;99.90;;;;;;5040471;28;20560;-70
2023/07/25 04:18:31;;;;;;;4.32;1.13;;;13.50;99.90;;;;;;5070673;28;20033;-69
2023/07/25 04:20:57;;;;;;;2.50;0.93;;;13.50;99.90;;;;;;5070683;28;20033;-69
2023/07/25 04:23:23;;;;;;;3.97;1.17;;;13.50;99.90;;;;;;5038931;28;20751;-70
2023/07/25 04:25:49;;;;;;;3.85;1.25;;;13.50;99.90;;;;;;5037851;28;20052;-70
2023/07/25 04:28:15;;;;;;;4.07;1.17;;;13.50;99.90;;;;;;5038566;28;20045;-70
2023/07/25 04:30:40;;;;;;;4.03;1.13;;;13.50;99.90;;;;;;5041108;28;20047;-69
2023/07/25 04:33:06;;;;;;;2.70;1.13;;;13.50;99.90;;;;;;5034361;28;20435;-70
2023/07/25 04:35:32;;;;;;;3.70;1.30;;;13.50;99.90;;;;;;5032385;28;20033;-70
2023/07/25 04:37:58;;;;;;;5.07;1.17;;;13.60;99.90;;;;;;5038948;28;20086;-70
2023/07/25 04:40:24;;;;;;;3.80;0.85;;;13.50;99.90;;;;;;5052944;28;21364;-70
2023/07/25 04:42:50;;;;;;;1.88;0.98;;;13.50;99.90;;;;;;5019915;28;20052;-70
2023/07/25 04:45:15;;;;;;;3.28;0.95;;;13.50;99.90;;;;;;5041217;28;20041;-70
2023/07/25 04:47:41;;;;;;;3.25;1.13;;;13.50;99.90;;;;;;5042358;28;20036;-70
2023/07/25 04:50:07;;;;;;;3.85;1.13;;;13.50;99.90;;;;;;5040909;28;20036;-70
2023/07/25 04:52:32;;;;;;;3.83;1.00;;;13.50;99.90;;;;;;5039582;28;20033;-70
2023/07/25 04:54:58;;;;;;;4.40;1.30;;;13.60;99.90;;;;;;5038979;28;20048;-72
2023/07/25 04:57:25;;;;;;;6.32;1.27;;;13.60;99.90;;;;;;5069857;28;21499;-70
2023/07/25 04:59:50;;;;;;;3.70;1.08;;;13.60;99.90;;;;;;5072681;28;20033;-70
2023/07/25 05:02:20;;;;;;;1.83;0.98;;;13.60;99.90;;;;;;5037290;28;20376;-70
2023/07/25 05:04:46;;;;;;;3.95;1.35;;;13.60;99.90;;;;;;5039688;28;20419;-70
2023/07/25 05:07:13;;;;;;;4.97;1.30;;;13.60;99.90;;;;;;5036922;28;20048;-70
2023/07/25 05:09:39;;;;;;;3.95;1.30;;;13.60;99.90;;;;;;5036548;28;20055;-70
2023/07/25 05:12:05;;;;;;;5.22;1.10;;;13.70;99.90;;;;;;5039938;28;20037;-70
2023/07/25 05:14:31;;;;;;;1.75;0.88;;;13.70;99.90;;;;;;5023255;28;20052;-70
2023/07/25 05:16:57;;;;;;;2.88;1.10;;;13.70;99.90;;;;;;5072254;28;20033;-70
2023/07/25 05:19:23;;;;;;;3.65;1.20;;;13.70;99.90;;;;;;5041100;28;20036;-71
2023/07/25 05:21:49;;;;;;;3.70;1.00;;;13.70;99.90;;;;;;5039036;28;20045;-71
2023/07/25 05:24:15;;;;;;;1.58;0.80;;;13.80;99.90;;;;;;5036468;28;20052;-71
2023/07/25 05:26:41;;;;;;;1.98;0.95;;;13.80;99.90;;;;;;5036019;28;20060;-71
2023/07/25 05:29:07;;;;;;;2.72;0.88;;;13.90;99.90;;;;;;5037387;28;20037;-70
2023/07/25 05:31:32;;;;;;;2.75;0.95;;;13.90;99.90;;;;;;5071020;28;20088;-71
2023/07/25 05:33:58;;;;;;;2.42;1.15;;;13.90;99.90;;;;;;5038139;28;20171;-71
2023/07/25 05:36:24;;;;;;;3.38;1.10;;;13.90;99.90;;;;;;5016344;28;20056;-71
2023/07/25 05:38:50;;;;;;;4.13;1.05;;;13.90;99.90;;;;;;5040202;28;20036;-69
2023/07/25 05:41:15;;;;;;;4.90;1.02;;;13.90;99.90;;;;;;5037827;28;20041;-71
2023/07/25 05:43:41;;;;;;;2.85;1.13;;;13.90;99.90;;;;;;5034520;28;20037;-71
2023/07/25 05:46:07;;;;;;;3.65;1.35;;;13.90;99.90;;;;;;5036975;28;20043;-70
2023/07/25 05:48:33;;;;;;;4.68;1.00;;;13.90;99.90;;;;;;5036550;28;20048;-71
2023/07/25 05:50:59;;;;;;;2.22;0.82;;;13.90;99.90;;;;;;5037689;28;20136;-71
2023/07/25 05:53:24;;;;;;;3.78;1.35;;;13.90;99.90;;;;;;5036070;28;20048;-71
2023/07/25 05:55:50;;;;;;;2.63;0.98;;;13.90;99.90;;;;;;5032109;28;20040;-72
2023/07/25 05:58:17;;;;;;;1.92;0.90;;;14.00;99.90;;;;;;5009072;28;21701;-71
2023/07/25 06:00:44;;;;;;;1.92;0.82;;;14.00;99.90;;;;;;5028081;28;20056;-71
2023/07/25 06:03:11;;;;;;;5.18;0.98;;;14.10;99.90;;;;;;5034158;28;20044;-71
2023/07/25 06:05:37;;;;;;;2.80;0.90;;;14.10;99.90;;;;;;5019212;28;20056;-71
2023/07/25 06:08:03;;;;;;;3.50;1.10;;;14.10;99.90;;;;;;5014892;28;20037;-71
2023/07/25 06:10:29;;;;;;;6.15;1.10;;;14.10;99.90;;;;;;5066558;28;20087;-71
2023/07/25 06:12:55;;;;;;;4.22;1.10;;;14.20;99.90;;;;;;5033989;28;20099;-71
2023/07/25 06:15:20;;;;;;;1.30;0.65;;;14.10;99.90;;;;;;5063602;28;20033;-71
2023/07/25 06:17:46;;;;;;;5.45;1.00;;;14.20;99.90;;;;;;5034357;28;20029;-71
2023/07/25 06:20:12;;;;;;;2.05;0.75;;;14.30;99.90;;;;;;5019769;28;20502;-71
2023/07/25 06:22:38;;;;;;;3.72;0.90;;;14.30;99.90;;;;;;5016737;28;20123;-71
2023/07/25 06:25:07;;;;;;;4.95;0.90;;;14.40;99.90;;;;;;5032130;28;20673;-71
2023/07/25 06:27:33;;;;;;;4.53;1.23;;;14.40;99.90;;;;;;5028812;28;20048;-71
2023/07/25 06:29:58;;;;;;;1.80;0.90;;;14.40;99.90;;;;;;5043020;28;20040;-71
2023/07/25 06:32:24;;;;;;;2.97;0.80;;;14.50;99.90;;;;;;5042407;28;20041;-71
2023/07/25 06:34:50;;;;;;;2.80;0.80;;;14.60;99.90;;;;;;5074677;28;20037;-70
2023/07/25 06:37:15;;;;;;;2.15;0.75;;;14.80;99.90;;;;;;5038221;28;20212;-74
2023/07/25 06:39:41;;;;;;;5.60;0.90;;;15.40;99.90;;;;;;5034903;28;20473;-71
2023/07/25 06:42:06;;;;;;;4.15;1.25;;;16.00;99.90;;;;;;5042686;28;20044;-71
2023/07/25 06:44:32;;;;;;;4.45;0.88;;;16.70;99.90;;;;;;5046101;28;20033;-71
2023/07/25 06:46:58;;;;;;;3.72;0.88;;;17.50;99.90;;;;;;5079864;28;20434;-71
2023/07/25 06:49:23;;;;;;;1.48;0.60;;;18.00;99.90;;;;;;5048258;28;20441;-71
2023/07/25 06:51:49;;;;;;;2.83;0.70;;;18.50;99.90;;;;;;5044351;28;20059;-71
2023/07/25 06:54:14;;;;;;;1.70;0.70;;;18.80;99.90;;;;;;5045134;28;20075;-71
2023/07/25 06:56:40;;;;;;;3.97;0.80;;;18.80;99.90;;;;;;5045592;28;20486;-71
2023/07/25 06:59:05;;;;;;;5.85;0.80;;;18.60;99.90;;;;;;5046817;28;20043;-71
2023/07/25 07:01:31;;;;;;;4.10;0.57;;;18.20;99.90;;;;;;5079262;28;20043;-71
2023/07/25 07:03:57;;;;;;;3.63;0.50;;;17.80;99.90;;;;;;5042919;28;20108;-71
2023/07/25 07:06:22;;;;;;;5.18;0.60;;;17.50;99.90;;;;;;5046419;28;20457;-71
2023/07/25 07:08:48;;;;;;;2.80;0.57;;;17.20;99.90;;;;;;5046387;28;20120;-71
2023/07/25 07:11:13;;;;;;;1.70;0.40;;;16.90;99.90;;;;;;5047262;28;20568;-71
2023/07/25 07:13:39;;;;;;;2.35;0.47;;;16.60;99.90;;;;;;5044385;28;20044;-70
2023/07/25 07:16:05;;;;;;;3.42;0.70;;;16.50;99.90;;;;;;5061779;28;20490;-71
2023/07/25 07:18:30;;;;;;;0.80;0.30;;;16.40;99.90;;;;;;5043796;28;20037;-71
2023/07/25 07:20:56;;;;;;;2.47;0.52;;;16.20;99.90;;;;;;5049008;28;20078;-71
2023/07/25 07:23:21;;;;;;;1.00;0.40;;;16.20;99.90;;;;;;5046349;28;20191;-71
2023/07/25 07:25:47;;;;;;;2.30;0.50;;;16.10;99.90;;;;;;5041088;28;20588;-71
2023/07/25 07:28:13;;;;;;;1.00;0.47;;;16.10;99.90;;;;;;5046403;28;20454;-71
2023/07/25 07:30:39;;;;;;;3.63;0.68;;;16.00;99.90;;;;;;5080525;28;20132;-71
2023/07/25 07:33:05;;;;;;;5.13;0.50;;;16.00;99.90;;;;;;5046934;28;20119;-71
2023/07/25 07:35:30;;;;;;;2.00;0.50;;;16.00;99.90;;;;;;5080018;28;20147;-71
2023/07/25 07:37:57;;;;;;;3.80;0.50;;;16.00;99.90;;;;;;5045508;28;20033;-71
2023/07/25 07:40:23;;;;;;;2.00;0.68;;;15.90;99.90;;;;;;5076808;28;20119;-71
2023/07/25 07:42:48;;;;;;;1.10;0.30;;;15.80;99.90;;;;;;5078196;28;20116;-71
2023/07/25 07:45:14;;;;;;;1.92;0.40;;;15.90;99.90;;;;;;5030562;28;20033;-71
2023/07/25 07:47:40;;;;;;;0.90;0.30;;;15.90;99.90;;;;;;5047659;28;20094;-71
2023/07/25 07:50:06;;;;;;;1.67;0.22;;;15.90;99.90;;;;;;5079782;28;20414;-71
2023/07/25 07:52:33;;;;;;;1.48;0.30;;;15.90;99.90;;;;;;5078750;28;20052;-71
2023/07/25 07:54:59;;;;;;;3.28;0.30;;;15.90;99.90;;;;;;5045089;28;20029;-70
2023/07/25 07:57:24;;;;;;;1.75;0.50;;;15.90;99.90;;;;;;5027710;28;20505;-70
2023/07/25 07:59:50;;;;;;;1.20;0.30;;;15.90;99.90;;;;;;5048258;28;20033;-70
2023/07/25 08:02:15;;;;;;;0.98;0.50;;;15.90;99.90;;;;;;5077030;28;20398;-70
2023/07/25 08:04:41;;;;;;;1.63;0.50;;;15.90;99.90;;;;;;5043364;28;20426;-70
2023/07/25 08:07:07;;;;;;;0.95;0.20;;;15.90;99.90;;;;;;5047593;28;20130;-70
2023/07/25 08:09:33;;;;;;;3.97;0.47;;;16.00;99.90;;;;;;5046151;28;20028;-70
2023/07/25 08:11:58;;;;;;;0.60;0.25;;;16.00;99.90;;;;;;5078390;28;20041;-71
2023/07/25 08:14:24;;;;;;;2.40;0.30;;;16.00;99.90;;;;;;5023472;28;20052;-71
2023/07/25 08:16:50;;;;;;;2.45;0.40;;;16.00;99.90;;;;;;5024732;28;20040;-70
2023/07/25 08:19:15;;;;;;;0.80;0.30;;;16.00;99.90;;;;;;5047054;28;20051;-69
2023/07/25 08:21:41;;;;;;;3.20;0.40;;;16.10;99.90;;;;;;5041014;28;20072;-71
2023/07/25 08:24:06;;;;;;;2.40;0.55;;;16.10;99.90;;;;;;5045684;28;20711;-71
2023/07/25 08:26:32;;;;;;;1.02;0.30;;;16.20;99.90;;;;;;5075442;28;20056;-71
2023/07/25 08:28:57;;;;;;;0.68;0.20;;;16.20;99.90;;;;;;5043362;28;20199;-72
2023/07/25 08:31:23;;;;;;;1.42;0.20;;;16.20;99.90;;;;;;5075701;28;20033;-71
2023/07/25 08:33:49;;;;;;;1.38;0.30;;;16.30;99.90;;;;;;5023050;28;20112;-72
2023/07/25 08:36:14;;;;;;;7.88;0.45;;;16.40;99.90;;;;;;5040284;28;20060;-72
2023/07/25 08:38:41;;;;;;;0.70;0.20;;;16.40;99.90;;;;;;5038908;28;20083;-72
2023/07/25 08:41:19;;;;;;;0.95;0.30;;;16.40;99.90;;;;;;5044122;28;20238;-72
2023/07/25 08:43:44;;;;;;;2.60;0.40;;;16.40;99.90;;;;;;5042526;28;20045;-72
2023/07/25 08:46:11;;;;;;;0.20;0.13;;;16.40;99.90;;;;;;5042014;28;20478;-72
2023/07/25 08:48:39;;;;;;;1.40;0.30;;;16.40;99.90;;;;;;5073810;28;20049;-72
2023/07/25 08:51:32;;;;;;;1.00;0.32;;;16.40;99.90;;;;;;5045598;28;20111;-72
2023/07/25 08:54:16;;;;;;;0.93;0.32;;;16.30;99.90;;;;;;5036681;28;20107;-71
2023/07/25 08:56:42;;;;;;;3.05;0.75;;;16.30;99.10;;;;;;5024189;28;20116;-71
2023/07/25 08:59:10;;;;;;;1.15;0.43;;;16.30;99.90;;;;;;5038645;28;20112;-72
2023/07/25 09:01:36;;;;;;;0.95;0.25;;;16.40;99.90;;;;;;5041004;28;20431;-71
2023/07/25 09:04:02;;;;;;;1.58;0.35;;;16.50;99.90;;;;;;5037363;28;20228;-72
2023/07/25 09:06:30;;;;;;;0.82;0.30;;;16.40;99.90;;;;;;5038195;28;20045;-72
2023/07/25 09:08:55;;;;;;;1.45;0.60;;;16.50;99.90;;;;;;5035323;28;20091;-72
2023/07/25 09:11:21;;;;;;;0.30;0.22;;;16.50;99.90;;;;;;5039151;28;20454;-72
2023/07/25 09:13:48;;;;;;;0.40;0.15;;;16.50;99.70;;;;;;5038341;28;20144;-72
2023/07/25 09:16:14;;;;;;;0.85;0.30;;;16.60;99.60;;;;;;5036717;28;20384;-72
2023/07/25 09:18:39;;;;;;;0.60;0.28;;;16.60;99.50;;;;;;5033136;28;20059;-71
2023/07/25 09:21:05;;;;;;;1.30;0.30;;;16.60;99.50;;;;;;5030820;28;20037;-72
2023/07/25 09:23:31;;;;;;;3.92;1.23;;;16.50;99.60;;;;;;5011719;28;20049;-72
2023/07/25 09:26:04;;;;;;;0.38;0.20;;;16.50;99.70;;;;;;5033963;28;20048;-71
2023/07/25 09:28:31;;;;;;;3.90;0.25;;;16.50;99.80;;;;;;5035848;28;20045;-71
2023/07/25 09:30:57;;;;;;;0.65;0.22;;;16.60;99.80;;;;;;5036659;28;20040;-72
2023/07/25 09:33:25;;;;;;;2.63;0.40;;;16.70;99.50;;;;;;5035452;28;20454;-71
2023/07/25 09:35:52;;;;;;;0.55;0.32;;;16.70;99.00;;;;;;5037492;28;20056;-71
2023/07/25 09:38:18;;;;;;;2.08;0.30;;;16.70;98.90;;;;;;5035061;28;20041;-71
2023/07/25 09:40:46;;;;;;;0.90;0.28;;;16.80;98.80;;;;;;5065568;28;20048;-71
2023/07/25 09:43:24;;;;;;;0.85;0.38;;;16.80;98.60;;;;;;5037185;28;20132;-71
2023/07/25 09:45:54;;;;;;;0.90;0.22;;;16.80;98.30;;;;;;5068418;28;20044;-71
2023/07/25 09:48:21;;;;;;;1.67;0.20;;;16.90;98.30;;;;;;5068519;28;20643;-71
2023/07/25 09:50:47;;;;;;;0.68;0.30;;;16.90;98.30;;;;;;5018841;28;20041;-71
2023/07/25 09:53:15;;;;;;;1.77;0.40;;;16.90;98.00;;;;;;5037069;28;20063;-71
2023/07/25 09:55:41;;;;;;;0.65;0.20;;;16.90;97.80;;;;;;5034180;28;20049;-71
2023/07/25 09:58:07;;;;;;;2.00;0.38;;;16.90;98.00;;;;;;5038459;28;20040;-72
2023/07/25 10:00:33;;;;;;;2.08;0.45;;;16.90;98.10;;;;;;5038949;28;20083;-70
2023/07/25 10:02:59;;;;;;;0.47;0.30;;;17.00;98.00;;;;;;5022544;28;20048;-71
2023/07/25 10:05:30;;;;;;;2.90;0.70;;;17.00;97.90;;;;;;5038817;28;20036;-71
2023/07/25 10:08:00;;;;;;;2.05;0.40;;;16.90;97.30;;;;;;5036965;28;20040;-71
2023/07/25 10:10:26;;;;;;;0.55;0.20;;;16.90;97.30;;;;;;5036857;28;20677;-72
2023/07/25 10:12:53;;;;;;;0.75;0.30;;;16.90;97.40;;;;;;5065046;28;20182;-70
2023/07/25 10:15:19;;;;;;;0.60;0.30;;;16.90;97.50;;;;;;5030766;28;20295;-71
2023/07/25 10:17:46;;;;;;;0.55;0.20;;;17.00;97.30;;;;;;5041885;28;20231;-71
2023/07/25 10:20:25;;;;;;;1.45;0.15;;;17.10;97.50;;;;;;5069197;28;20108;-71
2023/07/25 10:22:51;;;;;;;2.50;0.30;;;17.20;97.00;;;;;;5033513;28;20040;-71
2023/07/25 10:25:29;;;;;;;0.52;0.30;;;17.20;96.60;;;;;;5036961;28;20029;-71
2023/07/25 10:27:58;;;;;;;1.83;0.40;;;17.20;94.90;;;;;;5036770;28;20049;-71
2023/07/25 10:30:31;;;;;;;0.93;0.22;;;17.20;96.10;;;;;;5071505;28;20525;-71
2023/07/25 10:33:03;;;;;;;2.30;0.43;;;17.20;96.60;;;;;;5040064;28;20048;-71
2023/07/25 10:35:49;;;;;;;1.50;0.40;;;17.20;96.00;;;;;;5038325;28;21545;-71
2023/07/25 10:38:29;;;;;;;4.15;1.15;;;17.10;96.20;;;;;;5019344;28;20171;-71
2023/07/25 10:40:56;;;;;;;1.80;0.65;;;17.10;97.00;;;;;;5037745;28;20179;-71
2023/07/25 10:43:26;;;;;;;0.93;0.22;;;17.20;97.40;;;;;;5068859;28;20162;-71
2023/07/25 10:45:52;;;;;;;0.60;0.20;;;17.20;97.30;;;;;;5035933;28;20052;-71
2023/07/25 10:48:35;;;;;;;0.82;0.40;;;17.20;97.10;;;;;;5040427;28;20131;-71
2023/07/25 10:51:06;;;;;;;1.55;0.30;;;17.10;96.50;;;;;;5038167;28;20048;-71
2023/07/25 10:53:32;;;;;;;4.13;0.47;;;17.00;97.10;;;;;;5054436;28;20073;-71
2023/07/25 10:56:04;;;;;;;0.30;0.20;;;17.00;97.20;;;;;;5039446;28;20390;-71
2023/07/25 10:58:30;;;;;;;1.65;0.25;;;17.10;97.20;;;;;;5036117;28;21295;-71
2023/07/25 11:00:57;;;;;;;1.60;0.30;;;17.10;97.00;;;;;;5035330;28;20025;-70
2023/07/25 11:03:31;;;;;;;1.13;0.55;;;17.10;97.20;;;;;;5040699;28;20398;-71
2023/07/25 11:06:08;;;;;;;1.70;0.40;;;17.20;96.90;;;;;;5040676;28;20502;-72
2023/07/25 11:08:39;;;;;;;2.00;0.60;;;17.30;95.80;;;;;;5034873;28;20109;-72
2023/07/25 11:11:12;;;;;;;0.88;0.38;;;17.30;96.30;;;;;;5063680;28;20037;-72
2023/07/25 11:13:42;;;;;;;1.58;0.50;;;17.20;95.70;;;;;;5039983;28;20037;-72
2023/07/25 11:16:11;;;;;;;1.30;0.35;;;17.20;96.40;;;;;;5037460;28;20634;-72
2023/07/25 11:18:50;;;;;;;1.00;0.25;;;17.20;96.70;;;;;;5037612;28;20135;-72
2023/07/25 11:21:17;;;;;;;1.00;0.30;;;17.20;96.30;;;;;;5040486;28;20068;-72
2023/07/25 11:23:42;;;;;;;0.75;0.30;;;17.20;96.80;;;;;;5071172;28;20037;-72
2023/07/25 11:26:09;;;;;;;1.50;0.50;;;17.20;96.70;;;;;;5037979;28;20487;-72
2023/07/25 11:28:38;;;;;;;0.15;0.10;;;17.30;97.10;;;;;;5037791;28;20049;-72
2023/07/25 11:31:04;;;;;;;0.75;0.40;;;17.40;97.20;;;;;;5039431;28;20083;-72
2023/07/25 11:33:41;;;;;;;1.95;0.32;;;17.50;96.80;;;;;;5040786;28;20128;-72
2023/07/25 11:36:07;;;;;;;0.40;0.28;;;17.50;95.30;;;;;;5039753;28;20089;-72
2023/07/25 11:38:35;;;;;;;1.38;0.22;;;17.50;95.70;;;;;;5039149;28;20045;-72
2023/07/25 11:41:01;;;;;;;1.88;0.30;;;17.60;95.50;;;;;;5038767;28;20072;-72
2023/07/25 11:43:29;;;;;;;1.48;0.35;;;17.60;94.90;;;;;;5039783;28;20517;-72
2023/07/25 11:45:54;;;;;;;0.85;0.47;;;17.60;94.00;;;;;;5040057;28;20045;-72
2023/07/25 11:48:21;;;;;;;0.38;0.30;;;17.60;94.10;;;;;;5038514;28;20177;-72
2023/07/25 11:50:49;;;;;;;0.40;0.30;;;17.70;94.10;;;;;;5039358;28;20091;-72
2023/07/25 11:53:17;;;;;;;1.95;0.70;;;17.80;94.40;;;;;;5066065;28;20045;-72
2023/07/25 11:55:44;;;;;;;1.02;0.25;;;17.90;94.00;;;;;;5067071;28;20040;-71
2023/07/25 11:58:18;;;;;;;3.05;0.30;;;17.90;94.00;;;;;;5038550;28;20552;-72
2023/07/25 12:00:48;;;;;;;2.30;0.55;;;17.80;93.60;;;;;;5052525;28;20041;-72
2023/07/25 12:03:25;;;;;;;0.80;0.30;;;17.80;94.00;;;;;;5038603;28;20406;-72
2023/07/25 12:05:56;;;;;;;1.92;0.55;;;17.80;93.00;;;;;;5072678;28;20518;-72
2023/07/25 12:08:31;;;;;;;1.52;0.28;;;17.80;93.80;;;;;;5047652;28;20033;-72
2023/07/25 12:11:14;;;;;;;2.03;0.20;;;17.70;93.80;;;;;;5036122;28;20402;-72
2023/07/25 12:13:51;;;;;;;1.23;0.32;;;17.70;93.00;;;;;;5037499;28;20036;-72
2023/07/25 12:16:38;;;;;;;2.67;0.50;;;17.80;93.90;;;;;;5039174;28;20820;-72
2023/07/25 12:19:13;;;;;;;2.92;0.40;;;17.80;93.00;;;;;;5038734;28;20033;-73
2023/07/25 12:21:40;;;;;;;1.02;0.32;;;17.80;94.10;;;;;;5054233;28;20045;-72
2023/07/25 12:24:11;;;;;;;1.02;0.25;;;17.80;93.70;;;;;;5020899;28;20092;-71
2023/07/25 12:26:51;;;;;;;2.05;0.52;;;17.90;93.20;;;;;;5035228;28;20057;-71
2023/07/25 12:29:24;;;;;;;2.50;0.40;;;17.90;91.20;;;;;;5039878;28;20033;-71
2023/07/25 12:31:50;;;;;;;2.00;0.47;;;18.00;93.20;;;;;;5040686;28;20074;-71
2023/07/25 12:34:20;;;;;;;1.92;0.35;;;18.00;93.50;;;;;;5034701;28;20132;-71
2023/07/25 12:36:49;;;;;;;1.33;0.30;;;17.90;93.50;;;;;;5039490;28;20049;-71
2023/07/25 12:39:15;;;;;;;3.25;0.20;;;17.90;93.20;;;;;;5035397;28;20037;-71
2023/07/25 12:41:43;;;;;;;1.15;0.30;;;17.90;93.60;;;;;;5017828;28;20694;-71
2023/07/25 12:44:09;;;;;;;0.88;0.30;;;17.90;93.70;;;;;;5019977;28;20045;-71
2023/07/25 12:46:37;;;;;;;0.47;0.20;;;17.90;93.50;;;;;;5035124;28;20107;-71